sensor_id;sensor_type;location;lat;lon;timestamp;pressure;altitude;pressure_sealevel;temperature;humidity
20145;BME280;10233;50.814;6.590;2023-02-26T00:00:59;100263.69;;;0.74;100.00
20145;BME280;10233;50.814;6.590;2023-02-26T00:01:59;100261.19;;;0.73;100.00
20145;BME280;10233;50.814;6.590;2023-02-26T00:03:03;100264.63;;;0.73;100.00
20145;BME280;10233;50.814;6.590;2023-02-26T00:04:05;100269.44;;;0.68;100.00
20145;BME280;10233;50.814;6.590;2023-02-26T00:05:06;100267.53;;;0.70;100.00
20145;BME280;10233;50.814;6.590;2023-02-26T00:06:08;100262.47;;;0.59;100.00
20145;BME280;10233;50.814;6.590;2023-02-26T00:07:08;100269.47;;;0.58;100.00
20145;BME280;10233;50.814;6.590;2023-02-26T00:08:09;100265.06;;;0.59;100.00
20145;BME280;10233;50.814;6.590;2023-02-26T00:09:09;100260.94;;;0.57;100.00
20145;BME280;10233;50.814;6.590;2023-02-26T00:10:11;100262.31;;;0.51;100.00
20145;BME280;10233;50.814;6.590;2023-02-26T00:11:13;100271.78;;;0.52;100.00
20145;BME280;10233;50.814;6.590;2023-02-26T00:12:14;100271.78;;;0.52;100.00
20145;BME280;10233;50.814;6.590;2023-02-26T00:13:15;100265.88;;;0.50;100.00
20145;BME280;10233;50.814;6.590;2023-02-26T00:14:16;100269.31;;;0.50;100.00
20145;BME280;10233;50.814;6.590;2023-02-26T00:15:17;100269.88;;;0.44;100.00
20145;BME280;10233;50.814;6.590;2023-02-26T00:16:26;100275.22;;;0.43;100.00
20145;BME280;10233;50.814;6.590;2023-02-26T00:18:36;100270.16;;;0.51;100.00
20145;BME280;10233;50.814;6.590;2023-02-26T00:19:37;100276.75;;;0.45;100.00
20145;BME280;10233;50.814;6.590;2023-02-26T00:20:38;100279.22;;;0.47;100.00
20145;BME280;10233;50.814;6.590;2023-02-26T00:21:39;100279.66;;;0.43;100.00
20145;BME280;10233;50.814;6.590;2023-02-26T00:22:39;100276.91;;;0.44;100.00
20145;BME280;10233;50.814;6.590;2023-02-26T00:23:40;100284.44;;;0.47;100.00
20145;BME280;10233;50.814;6.590;2023-02-26T00:24:41;100283.06;;;0.43;100.00
20145;BME280;10233;50.814;6.590;2023-02-26T00:25:41;100288.59;;;0.40;100.00
20145;BME280;10233;50.814;6.590;2023-02-26T00:26:42;100288.59;;;0.40;100.00
20145;BME280;10233;50.814;6.590;2023-02-26T00:27:42;100292.72;;;0.43;100.00
20145;BME280;10233;50.814;6.590;2023-02-26T00:28:43;100299.97;;;0.39;100.00
20145;BME280;10233;50.814;6.590;2023-02-26T00:29:44;100298.34;;;0.38;100.00
20145;BME280;10233;50.814;6.590;2023-02-26T00:30:45;100298.63;;;0.44;100.00
20145;BME280;10233;50.814;6.590;2023-02-26T00:31:46;100292.84;;;0.41;100.00
20145;BME280;10233;50.814;6.590;2023-02-26T00:32:46;100300.69;;;0.41;100.00
20145;BME280;10233;50.814;6.590;2023-02-26T00:33:47;100299.72;;;0.42;100.00
20145;BME280;10233;50.814;6.590;2023-02-26T00:34:48;100301.38;;;0.43;100.00
20145;BME280;10233;50.814;6.590;2023-02-26T00:35:57;100305.38;;;0.38;100.00
20145;BME280;10233;50.814;6.590;2023-02-26T00:37:22;100301.06;;;0.36;100.00
20145;BME280;10233;50.814;6.590;2023-02-26T00:38:27;100302.34;;;0.32;100.00
20145;BME280;10233;50.814;6.590;2023-02-26T00:40:10;100304.78;;;0.34;100.00
20145;BME280;10233;50.814;6.590;2023-02-26T00:41:14;100314.03;;;0.47;100.00
20145;BME280;10233;50.814;6.590;2023-02-26T00:42:15;100318.72;;;0.44;100.00
20145;BME280;10233;50.814;6.590;2023-02-26T00:43:18;100312.66;;;0.53;100.00
20145;BME280;10233;50.814;6.590;2023-02-26T00:44:19;100310.88;;;0.53;100.00
20145;BME280;10233;50.814;6.590;2023-02-26T00:45:21;100312.66;;;0.53;100.00
20145;BME280;10233;50.814;6.590;2023-02-26T00:48:20;100319.28;;;0.67;100.00
20145;BME280;10233;50.814;6.590;2023-02-26T00:50:55;100319.13;;;0.97;100.00
20145;BME280;10233;50.814;6.590;2023-02-26T00:52:01;100315.13;;;1.02;100.00
20145;BME280;10233;50.814;6.590;2023-02-26T00:53:37;100320.75;;;1.07;100.00
20145;BME280;10233;50.814;6.590;2023-02-26T00:54:42;100319.50;;;1.21;100.00
20145;BME280;10233;50.814;6.590;2023-02-26T00:55:43;100323.63;;;1.23;100.00
20145;BME280;10233;50.814;6.590;2023-02-26T00:56:43;100318.38;;;1.33;100.00
20145;BME280;10233;50.814;6.590;2023-02-26T00:57:44;100323.47;;;1.34;100.00
20145;BME280;10233;50.814;6.590;2023-02-26T00:58:44;100324.97;;;1.37;100.00
20145;BME280;10233;50.814;6.590;2023-02-26T00:59:45;100323.44;;;1.43;100.00
20145;BME280;10233;50.814;6.590;2023-02-26T01:00:45;100327.88;;;1.43;100.00
20145;BME280;10233;50.814;6.590;2023-02-26T01:01:46;100319.03;;;1.44;100.00
20145;BME280;10233;50.814;6.590;2023-02-26T01:02:48;100324.13;;;1.46;100.00
20145;BME280;10233;50.814;6.590;2023-02-26T01:03:50;100331.56;;;1.50;100.00
20145;BME280;10233;50.814;6.590;2023-02-26T01:04:51;100323.69;;;1.50;100.00
20145;BME280;10233;50.814;6.590;2023-02-26T01:05:51;100331.94;;;1.55;100.00
20145;BME280;10233;50.814;6.590;2023-02-26T01:06:55;100332.09;;;1.53;100.00
20145;BME280;10233;50.814;6.590;2023-02-26T01:08:13;100331.25;;;1.63;100.00
20145;BME280;10233;50.814;6.590;2023-02-26T01:10:25;100337.97;;;1.65;100.00
20145;BME280;10233;50.814;6.590;2023-02-26T01:11:27;100344.50;;;1.61;100.00
20145;BME280;10233;50.814;6.590;2023-02-26T01:12:28;100329.19;;;1.66;100.00
20145;BME280;10233;50.814;6.590;2023-02-26T01:13:28;100333.84;;;1.72;100.00
20145;BME280;10233;50.814;6.590;2023-02-26T01:14:30;100334.22;;;1.77;100.00
20145;BME280;10233;50.814;6.590;2023-02-26T01:15:33;100329.53;;;1.81;100.00
20145;BME280;10233;50.814;6.590;2023-02-26T01:16:46;100333.13;;;1.80;100.00
20145;BME280;10233;50.814;6.590;2023-02-26T01:18:11;100331.28;;;1.90;100.00
20145;BME280;10233;50.814;6.590;2023-02-26T01:19:18;100332.66;;;1.94;100.00
20145;BME280;10233;50.814;6.590;2023-02-26T01:20:25;100333.50;;;1.85;100.00
20145;BME280;10233;50.814;6.590;2023-02-26T01:21:32;100336.13;;;1.85;100.00
20145;BME280;10233;50.814;6.590;2023-02-26T01:22:38;100335.03;;;1.87;100.00
20145;BME280;10233;50.814;6.590;2023-02-26T01:23:43;100332.69;;;1.84;100.00
20145;BME280;10233;50.814;6.590;2023-02-26T01:24:48;100328.28;;;1.85;100.00
20145;BME280;10233;50.814;6.590;2023-02-26T01:25:53;100336.41;;;1.82;100.00
20145;BME280;10233;50.814;6.590;2023-02-26T01:26:57;100338.63;;;1.86;100.00
20145;BME280;10233;50.814;6.590;2023-02-26T01:27:57;100336.53;;;1.90;100.00
20145;BME280;10233;50.814;6.590;2023-02-26T01:28:58;100341.31;;;1.94;100.00
20145;BME280;10233;50.814;6.590;2023-02-26T01:29:59;100335.94;;;1.96;100.00
20145;BME280;10233;50.814;6.590;2023-02-26T01:31:02;100336.06;;;1.94;100.00
20145;BME280;10233;50.814;6.590;2023-02-26T01:32:09;100334.81;;;1.98;100.00
20145;BME280;10233;50.814;6.590;2023-02-26T01:33:28;100334.53;;;2.01;100.00
20145;BME280;10233;50.814;6.590;2023-02-26T01:34:36;100344.31;;;1.99;100.00
20145;BME280;10233;50.814;6.590;2023-02-26T01:36:00;100334.16;;;1.96;100.00
20145;BME280;10233;50.814;6.590;2023-02-26T01:37:07;100332.59;;;2.03;100.00
20145;BME280;10233;50.814;6.590;2023-02-26T01:42:31;100338.81;;;2.02;100.00
20145;BME280;10233;50.814;6.590;2023-02-26T01:48:54;100338.53;;;2.05;100.00
20145;BME280;10233;50.814;6.590;2023-02-26T01:50:08;100339.94;;;2.00;100.00
20145;BME280;10233;50.814;6.590;2023-02-26T01:51:11;100336.63;;;1.98;100.00
20145;BME280;10233;50.814;6.590;2023-02-26T01:53:39;100339.69;;;1.93;100.00
20145;BME280;10233;50.814;6.590;2023-02-26T01:54:40;100341.38;;;1.85;100.00
20145;BME280;10233;50.814;6.590;2023-02-26T01:55:42;100335.03;;;1.87;100.00
20145;BME280;10233;50.814;6.590;2023-02-26T01:56:47;100340.16;;;1.79;100.00
20145;BME280;10233;50.814;6.590;2023-02-26T01:57:51;100342.22;;;1.76;100.00
20145;BME280;10233;50.814;6.590;2023-02-26T01:58:53;100329.56;;;1.71;100.00
20145;BME280;10233;50.814;6.590;2023-02-26T01:59:54;100330.53;;;1.70;100.00
20145;BME280;10233;50.814;6.590;2023-02-26T02:00:57;100333.47;;;1.58;100.00
20145;BME280;10233;50.814;6.590;2023-02-26T02:02:01;100328.66;;;1.53;100.00
20145;BME280;10233;50.814;6.590;2023-02-26T02:03:03;100335.00;;;1.51;100.00
20145;BME280;10233;50.814;6.590;2023-02-26T02:04:10;100329.66;;;1.42;100.00
20145;BME280;10233;50.814;6.590;2023-02-26T02:05:16;100327.44;;;1.48;100.00
20145;BME280;10233;50.814;6.590;2023-02-26T02:06:21;100323.88;;;1.39;100.00
20145;BME280;10233;50.814;6.590;2023-02-26T02:07:23;100320.31;;;1.31;100.00
20145;BME280;10233;50.814;6.590;2023-02-26T02:08:24;100320.72;;;1.26;100.00
20145;BME280;10233;50.814;6.590;2023-02-26T02:09:25;100323.91;;;1.30;100.00
20145;BME280;10233;50.814;6.590;2023-02-26T02:10:29;100326.13;;;1.25;100.00
20145;BME280;10233;50.814;6.590;2023-02-26T02:11:32;100321.84;;;1.23;100.00
20145;BME280;10233;50.814;6.590;2023-02-26T02:12:38;100328.88;;;1.23;100.00
20145;BME280;10233;50.814;6.590;2023-02-26T02:14:21;100331.09;;;1.18;100.00
20145;BME280;10233;50.814;6.590;2023-02-26T02:15:45;100338.22;;;1.16;100.00
20145;BME280;10233;50.814;6.590;2023-02-26T02:17:13;100336.06;;;1.12;100.00
20145;BME280;10233;50.814;6.590;2023-02-26T02:18:27;100339.47;;;1.12;100.00
20145;BME280;10233;50.814;6.590;2023-02-26T02:21:19;100346.78;;;1.18;100.00
20145;BME280;10233;50.814;6.590;2023-02-26T02:23:56;100343.34;;;1.17;100.00
20145;BME280;10233;50.814;6.590;2023-02-26T02:25:39;100349.53;;;1.17;100.00
20145;BME280;10233;50.814;6.590;2023-02-26T02:27:22;100348.31;;;1.21;100.00
20145;BME280;10233;50.814;6.590;2023-02-26T02:30:09;100354.66;;;1.18;100.00
20145;BME280;10233;50.814;6.590;2023-02-26T02:32:45;100357.56;;;1.06;100.00
20145;BME280;10233;50.814;6.590;2023-02-26T02:34:05;100356.44;;;1.08;100.00
20145;BME280;10233;50.814;6.590;2023-02-26T02:35:24;100354.94;;;1.06;100.00
20145;BME280;10233;50.814;6.590;2023-02-26T02:36:46;100351.47;;;1.05;100.00
20145;BME280;10233;50.814;6.590;2023-02-26T02:39:17;100357.56;;;1.06;100.00
20145;BME280;10233;50.814;6.590;2023-02-26T02:40:23;100356.31;;;1.00;100.00
20145;BME280;10233;50.814;6.590;2023-02-26T02:42:06;100358.06;;;0.99;100.00
20145;BME280;10233;50.814;6.590;2023-02-26T02:43:13;100357.56;;;1.06;100.00
20145;BME280;10233;50.814;6.590;2023-02-26T02:44:17;100354.53;;;1.01;100.00
20145;BME280;10233;50.814;6.590;2023-02-26T02:45:42;100360.84;;;1.08;100.00
20145;BME280;10233;50.814;6.590;2023-02-26T02:46:46;100369.38;;;1.09;100.00
20145;BME280;10233;50.814;6.590;2023-02-26T02:48:00;100369.78;;;1.05;100.00
20145;BME280;10233;50.814;6.590;2023-02-26T02:49:04;100373.38;;;1.04;100.00
20145;BME280;10233;50.814;6.590;2023-02-26T02:50:12;100377.91;;;1.02;100.00
20145;BME280;10233;50.814;6.590;2023-02-26T02:51:25;100376.25;;;1.01;100.00
20145;BME280;10233;50.814;6.590;2023-02-26T02:53:06;100376.38;;;0.99;100.00
20145;BME280;10233;50.814;6.590;2023-02-26T02:56:28;100380.66;;;0.91;100.00
20145;BME280;10233;50.814;6.590;2023-02-26T02:57:38;100380.66;;;0.91;100.00
20145;BME280;10233;50.814;6.590;2023-02-26T02:58:50;100376.41;;;0.90;100.00
20145;BME280;10233;50.814;6.590;2023-02-26T02:59:57;100382.47;;;0.91;100.00
20145;BME280;10233;50.814;6.590;2023-02-26T03:01:03;100380.97;;;0.88;100.00
20145;BME280;10233;50.814;6.590;2023-02-26T03:03:31;100392.66;;;0.84;100.00
20145;BME280;10233;50.814;6.590;2023-02-26T03:04:34;100387.25;;;0.76;100.00
20145;BME280;10233;50.814;6.590;2023-02-26T03:05:36;100390.00;;;0.74;100.00
20145;BME280;10233;50.814;6.590;2023-02-26T03:06:37;100386.72;;;0.73;100.00
20145;BME280;10233;50.814;6.590;2023-02-26T03:08:04;100387.94;;;0.68;100.00
20145;BME280;10233;50.814;6.590;2023-02-26T03:09:07;100392.34;;;0.68;100.00
20145;BME280;10233;50.814;6.590;2023-02-26T03:10:08;100382.28;;;0.73;100.00
20145;BME280;10233;50.814;6.590;2023-02-26T03:11:09;100389.47;;;0.71;100.00
20145;BME280;10233;50.814;6.590;2023-02-26T03:12:10;100391.25;;;0.61;100.00
20145;BME280;10233;50.814;6.590;2023-02-26T03:13:20;100390.56;;;0.59;100.00
20145;BME280;10233;50.814;6.590;2023-02-26T03:14:24;100393.44;;;0.56;100.00
20145;BME280;10233;50.814;6.590;2023-02-26T03:15:41;100392.47;;;0.57;100.00
20145;BME280;10233;50.814;6.590;2023-02-26T03:25:08;100401.91;;;0.39;100.00
20145;BME280;10233;50.814;6.590;2023-02-26T03:26:16;100402.19;;;0.36;100.00
20145;BME280;10233;50.814;6.590;2023-02-26T03:27:33;100410.34;;;0.43;100.00
20145;BME280;10233;50.814;6.590;2023-02-26T03:28:58;100408.38;;;0.35;100.00
20145;BME280;10233;50.814;6.590;2023-02-26T03:30:05;100409.91;;;0.38;100.00
20145;BME280;10233;50.814;6.590;2023-02-26T03:32:31;100404.50;;;0.29;100.00
20145;BME280;10233;50.814;6.590;2023-02-26T03:33:51;100403.53;;;0.30;100.00
20145;BME280;10233;50.814;6.590;2023-02-26T03:35:16;100413.31;;;0.28;100.00
20145;BME280;10233;50.814;6.590;2023-02-26T03:36:18;100412.59;;;0.26;100.00
20145;BME280;10233;50.814;6.590;2023-02-26T03:37:34;100413.97;;;0.21;100.00
20145;BME280;10233;50.814;6.590;2023-02-26T03:39:11;100421.09;;;0.19;100.00
20145;BME280;10233;50.814;6.590;2023-02-26T03:40:19;100419.88;;;0.23;100.00
20145;BME280;10233;50.814;6.590;2023-02-26T03:41:27;100419.44;;;0.18;100.00
20145;BME280;10233;50.814;6.590;2023-02-26T03:42:38;100417.81;;;0.17;100.00
20145;BME280;10233;50.814;6.590;2023-02-26T03:43:46;100418.47;;;0.19;100.00
20145;BME280;10233;50.814;6.590;2023-02-26T03:45:01;100422.59;;;0.12;100.00
20145;BME280;10233;50.814;6.590;2023-02-26T03:46:09;100417.38;;;0.12;100.00
20145;BME280;10233;50.814;6.590;2023-02-26T03:47:12;100427.56;;;0.15;100.00
20145;BME280;10233;50.814;6.590;2023-02-26T03:48:17;100421.38;;;0.16;100.00
20145;BME280;10233;50.814;6.590;2023-02-26T03:49:29;100419.03;;;0.13;100.00
20145;BME280;10233;50.814;6.590;2023-02-26T03:50:40;100422.66;;;0.31;100.00
20145;BME280;10233;50.814;6.590;2023-02-26T03:51:58;100420.84;;;0.22;100.00
20145;BME280;10233;50.814;6.590;2023-02-26T03:53:23;100429.47;;;0.13;100.00
20145;BME280;10233;50.814;6.590;2023-02-26T03:54:34;100431.13;;;0.14;100.00
20145;BME280;10233;50.814;6.590;2023-02-26T03:56:12;100430.31;;;0.13;100.00
20145;BME280;10233;50.814;6.590;2023-02-26T03:57:27;100433.72;;;0.14;100.00
20145;BME280;10233;50.814;6.590;2023-02-26T03:58:56;100436.34;;;0.14;100.00
20145;BME280;10233;50.814;6.590;2023-02-26T04:00:16;100446.94;;;0.13;100.00
20145;BME280;10233;50.814;6.590;2023-02-26T04:01:22;100450.22;;;0.05;100.00
20145;BME280;10233;50.814;6.590;2023-02-26T04:02:33;100445.53;;;0.08;100.00
20145;BME280;10233;50.814;6.590;2023-02-26T04:03:49;100447.31;;;0.08;100.00
20145;BME280;10233;50.814;6.590;2023-02-26T04:04:58;100455.69;;;0.02;100.00
20145;BME280;10233;50.814;6.590;2023-02-26T04:06:01;100462.84;;;0.00;100.00
20145;BME280;10233;50.814;6.590;2023-02-26T04:07:02;100461.03;;;0.00;100.00
20145;BME280;10233;50.814;6.590;2023-02-26T04:08:03;100458.41;;;0.00;100.00
20145;BME280;10233;50.814;6.590;2023-02-26T04:09:04;100461.09;;;0.10;100.00
20145;BME280;10233;50.814;6.590;2023-02-26T04:10:09;100462.56;;;0.03;100.00
20145;BME280;10233;50.814;6.590;2023-02-26T04:11:14;100468.31;;;-0.03;100.00
20145;BME280;10233;50.814;6.590;2023-02-26T04:12:21;100467.09;;;0.01;100.00
20145;BME280;10233;50.814;6.590;2023-02-26T04:13:24;100466.38;;;-0.01;100.00
20145;BME280;10233;50.814;6.590;2023-02-26T04:14:25;100480.28;;;-0.01;100.00
20145;BME280;10233;50.814;6.590;2023-02-26T04:15:28;100467.91;;;0.01;100.00
20145;BME280;10233;50.814;6.590;2023-02-26T04:16:28;100466.97;;;0.03;100.00
20145;BME280;10233;50.814;6.590;2023-02-26T04:17:30;100475.28;;;-0.04;100.00
20145;BME280;10233;50.814;6.590;2023-02-26T04:18:31;100474.34;;;-0.03;100.00
20145;BME280;10233;50.814;6.590;2023-02-26T04:19:32;100472.81;;;-0.05;100.00
20145;BME280;10233;50.814;6.590;2023-02-26T04:20:32;100472.81;;;-0.05;100.00
20145;BME280;10233;50.814;6.590;2023-02-26T04:21:34;100480.19;;;-0.10;100.00
20145;BME280;10233;50.814;6.590;2023-02-26T04:22:35;100476.38;;;-0.06;100.00
20145;BME280;10233;50.814;6.590;2023-02-26T04:23:36;100475.06;;;-0.01;100.00
20145;BME280;10233;50.814;6.590;2023-02-26T04:24:37;100469.38;;;-0.06;100.00
20145;BME280;10233;50.814;6.590;2023-02-26T04:25:38;100479.41;;;-0.11;100.00
20145;BME280;10233;50.814;6.590;2023-02-26T04:26:39;100469.75;;;-0.10;100.00
20145;BME280;10233;50.814;6.590;2023-02-26T04:27:41;100485.44;;;-0.10;100.00
20145;BME280;10233;50.814;6.590;2023-02-26T04:28:41;100480.03;;;-0.18;100.00
20145;BME280;10233;50.814;6.590;2023-02-26T04:29:42;100485.25;;;-0.18;100.00
20145;BME280;10233;50.814;6.590;2023-02-26T04:30:43;100482.38;;;-0.15;100.00
20145;BME280;10233;50.814;6.590;2023-02-26T04:31:46;100485.06;;;-0.26;100.00
20145;BME280;10233;50.814;6.590;2023-02-26T04:32:47;100485.94;;;-0.16;100.00
20145;BME280;10233;50.814;6.590;2023-02-26T04:33:49;100489.41;;;-0.16;100.00
20145;BME280;10233;50.814;6.590;2023-02-26T04:34:49;100487.88;;;-0.18;100.00
20145;BME280;10233;50.814;6.590;2023-02-26T04:35:51;100491.00;;;-0.24;100.00
20145;BME280;10233;50.814;6.590;2023-02-26T04:36:53;100485.06;;;-0.26;100.00
20145;BME280;10233;50.814;6.590;2023-02-26T04:37:53;100477.50;;;-0.29;100.00
20145;BME280;10233;50.814;6.590;2023-02-26T04:38:54;100478.81;;;-0.35;100.00
20145;BME280;10233;50.814;6.590;2023-02-26T04:39:55;100476.66;;;-0.30;100.00
20145;BME280;10233;50.814;6.590;2023-02-26T04:40:55;100484.03;;;-0.35;100.00
20145;BME280;10233;50.814;6.590;2023-02-26T04:41:57;100484.16;;;-0.36;100.00
20145;BME280;10233;50.814;6.590;2023-02-26T04:42:57;100485.81;;;-0.35;100.00
20145;BME280;10233;50.814;6.590;2023-02-26T04:44:01;100485.13;;;-0.37;100.00
20145;BME280;10233;50.814;6.590;2023-02-26T04:45:04;100486.78;;;-0.36;100.00
20145;BME280;10233;50.814;6.590;2023-02-26T04:46:07;100489.91;;;-0.42;100.00
20145;BME280;10233;50.814;6.590;2023-02-26T04:47:09;100489.06;;;-0.43;100.00
20145;BME280;10233;50.814;6.590;2023-02-26T04:48:12;100489.66;;;-0.39;100.00
20145;BME280;10233;50.814;6.590;2023-02-26T04:49:13;100490.47;;;-0.39;100.00
20145;BME280;10233;50.814;6.590;2023-02-26T04:50:17;100493.31;;;-0.42;100.00
20145;BME280;10233;50.814;6.590;2023-02-26T04:51:20;100501.03;;;-0.40;100.00
20145;BME280;10233;50.814;6.590;2023-02-26T04:52:21;100493.47;;;-0.43;100.00
20145;BME280;10233;50.814;6.590;2023-02-26T04:53:22;100498.53;;;-0.42;100.00
20145;BME280;10233;50.814;6.590;2023-02-26T04:54:23;100492.06;;;-0.47;100.00
20145;BME280;10233;50.814;6.590;2023-02-26T04:55:23;100495.63;;;-0.48;100.00
20145;BME280;10233;50.814;6.590;2023-02-26T04:56:24;100503.81;;;-0.53;100.00
20145;BME280;10233;50.814;6.590;2023-02-26T04:57:25;100502.16;;;-0.54;100.00
20145;BME280;10233;50.814;6.590;2023-02-26T04:58:26;100500.25;;;-0.52;100.00
20145;BME280;10233;50.814;6.590;2023-02-26T04:59:29;100508.47;;;-0.56;100.00
20145;BME280;10233;50.814;6.590;2023-02-26T05:00:31;100511.53;;;-0.51;100.00
20145;BME280;10233;50.814;6.590;2023-02-26T05:01:32;100510.84;;;-0.53;100.00
20145;BME280;10233;50.814;6.590;2023-02-26T05:02:33;100512.72;;;-0.55;100.00
20145;BME280;10233;50.814;6.590;2023-02-26T05:03:33;100510.69;;;-0.52;100.00
20145;BME280;10233;50.814;6.590;2023-02-26T05:04:34;100515.34;;;-0.55;100.00
20145;BME280;10233;50.814;6.590;2023-02-26T05:05:35;100519.47;;;-0.53;100.00
20145;BME280;10233;50.814;6.590;2023-02-26T05:06:35;100518.06;;;-0.57;100.00
20145;BME280;10233;50.814;6.590;2023-02-26T05:07:36;100515.91;;;-0.52;100.00
20145;BME280;10233;50.814;6.590;2023-02-26T05:08:36;100516.06;;;-0.53;100.00
20145;BME280;10233;50.814;6.590;2023-02-26T05:09:41;100520.81;;;-0.58;100.00
20145;BME280;10233;50.814;6.590;2023-02-26T05:10:41;100511.91;;;-0.56;100.00
20145;BME280;10233;50.814;6.590;2023-02-26T05:11:42;100515.66;;;-0.49;100.00
20145;BME280;10233;50.814;6.590;2023-02-26T05:12:42;100518.97;;;-0.47;100.00
20145;BME280;10233;50.814;6.590;2023-02-26T05:13:43;100519.56;;;-0.43;100.00
20145;BME280;10233;50.814;6.590;2023-02-26T05:14:43;100523.25;;;-0.46;100.00
20145;BME280;10233;50.814;6.590;2023-02-26T05:15:44;100529.69;;;-0.50;100.00
20145;BME280;10233;50.814;6.590;2023-02-26T05:16:46;100531.09;;;-0.46;100.00
20145;BME280;10233;50.814;6.590;2023-02-26T05:17:46;100526.09;;;-0.49;100.00
20145;BME280;10233;50.814;6.590;2023-02-26T05:18:47;100531.31;;;-0.49;100.00
20145;BME280;10233;50.814;6.590;2023-02-26T05:19:47;100536.75;;;-0.41;100.00
20145;BME280;10233;50.814;6.590;2023-02-26T05:20:53;100531.22;;;-0.47;100.00
20145;BME280;10233;50.814;6.590;2023-02-26T05:21:54;100523.63;;;-0.50;100.00
20145;BME280;10233;50.814;6.590;2023-02-26T05:22:55;100529.09;;;-0.53;100.00
20145;BME280;10233;50.814;6.590;2023-02-26T05:23:56;100538.00;;;-0.56;100.00
20145;BME280;10233;50.814;6.590;2023-02-26T05:24:56;100533.72;;;-0.57;100.00
20145;BME280;10233;50.814;6.590;2023-02-26T05:25:57;100542.28;;;-0.55;100.00
20145;BME280;10233;50.814;6.590;2023-02-26T05:26:58;100534.56;;;-0.56;100.00
20145;BME280;10233;50.814;6.590;2023-02-26T05:27:58;100536.94;;;-0.53;100.00
20145;BME280;10233;50.814;6.590;2023-02-26T05:28:59;100529.34;;;-0.56;100.00
20145;BME280;10233;50.814;6.590;2023-02-26T05:30:00;100534.56;;;-0.56;100.00
20145;BME280;10233;50.814;6.590;2023-02-26T05:31:01;100539.19;;;-0.60;100.00
20145;BME280;10233;50.814;6.590;2023-02-26T05:32:02;100531.25;;;-0.58;100.00
20145;BME280;10233;50.814;6.590;2023-02-26T05:33:02;100540.28;;;-0.62;100.00
20145;BME280;10233;50.814;6.590;2023-02-26T05:34:03;100545.38;;;-0.61;100.00
20145;BME280;10233;50.814;6.590;2023-02-26T05:35:04;100543.69;;;-0.62;100.00
20145;BME280;10233;50.814;6.590;2023-02-26T05:36:04;100544.53;;;-0.61;100.00
20145;BME280;10233;50.814;6.590;2023-02-26T05:37:06;100549.75;;;-0.61;100.00
20145;BME280;10233;50.814;6.590;2023-02-26T05:38:06;100556.75;;;-0.62;100.00
20145;BME280;10233;50.814;6.590;2023-02-26T05:39:08;100547.03;;;-0.60;100.00
20145;BME280;10233;50.814;6.590;2023-02-26T05:40:10;100552.94;;;-0.58;100.00
20145;BME280;10233;50.814;6.590;2023-02-26T05:41:10;100558.44;;;-0.61;100.00
20145;BME280;10233;50.814;6.590;2023-02-26T05:42:11;100553.78;;;-0.57;100.00
20145;BME280;10233;50.814;6.590;2023-02-26T05:43:11;100554.84;;;-0.60;100.00
20145;BME280;10233;50.814;6.590;2023-02-26T05:44:12;100560.06;;;-0.60;100.00
20145;BME280;10233;50.814;6.590;2023-02-26T05:45:12;100557.59;;;-0.61;100.00
20145;BME280;10233;50.814;6.590;2023-02-26T05:46:13;100557.19;;;-0.57;100.00
20145;BME280;10233;50.814;6.590;2023-02-26T05:47:13;100558.28;;;-0.59;100.00
20145;BME280;10233;50.814;6.590;2023-02-26T05:48:14;100560.56;;;-0.66;100.00
20145;BME280;10233;50.814;6.590;2023-02-26T05:49:14;100561.16;;;-0.62;100.00
20145;BME280;10233;50.814;6.590;2023-02-26T05:50:15;100570.41;;;-0.69;100.00
20145;BME280;10233;50.814;6.590;2023-02-26T05:51:15;100571.00;;;-0.66;100.00
20145;BME280;10233;50.814;6.590;2023-02-26T05:52:16;100568.06;;;-0.72;100.00
20145;BME280;10233;50.814;6.590;2023-02-26T05:53:17;100561.03;;;-0.72;100.00
20145;BME280;10233;50.814;6.590;2023-02-26T05:54:18;100568.06;;;-0.72;100.00
20145;BME280;10233;50.814;6.590;2023-02-26T05:55:18;100565.34;;;-0.71;100.00
20145;BME280;10233;50.814;6.590;2023-02-26T05:56:19;100568.75;;;-0.70;100.00
20145;BME280;10233;50.814;6.590;2023-02-26T05:57:19;100577.41;;;-0.70;100.00
20145;BME280;10233;50.814;6.590;2023-02-26T05:58:20;100570.91;;;-0.75;100.00
20145;BME280;10233;50.814;6.590;2023-02-26T05:59:20;100573.28;;;-0.72;100.00
20145;BME280;10233;50.814;6.590;2023-02-26T06:00:21;100566.25;;;-0.72;100.00
20145;BME280;10233;50.814;6.590;2023-02-26T06:01:22;100575.03;;;-0.73;100.00
20145;BME280;10233;50.814;6.590;2023-02-26T06:02:23;100579.69;;;-0.76;100.00
20145;BME280;10233;50.814;6.590;2023-02-26T06:03:23;100583.94;;;-0.75;100.00
20145;BME280;10233;50.814;6.590;2023-02-26T06:04:24;100578.50;;;-0.72;100.00
20145;BME280;10233;50.814;6.590;2023-02-26T06:05:24;100587.97;;;-0.71;100.00
20145;BME280;10233;50.814;6.590;2023-02-26T06:06:25;100580.03;;;-0.70;100.00
20145;BME280;10233;50.814;6.590;2023-02-26T06:07:26;100585.38;;;-0.71;100.00
20145;BME280;10233;50.814;6.590;2023-02-26T06:08:26;100582.84;;;-0.62;100.00
20145;BME280;10233;50.814;6.590;2023-02-26T06:09:27;100596.25;;;-0.66;100.00
20145;BME280;10233;50.814;6.590;2023-02-26T06:10:27;100593.41;;;-0.63;100.00
20145;BME280;10233;50.814;6.590;2023-02-26T06:11:29;100593.78;;;-0.68;100.00
20145;BME280;10233;50.814;6.590;2023-02-26T06:12:30;100599.56;;;-0.64;100.00
20145;BME280;10233;50.814;6.590;2023-02-26T06:13:31;100601.72;;;-0.69;100.00
20145;BME280;10233;50.814;6.590;2023-02-26T06:14:32;100601.84;;;-0.71;100.00
20145;BME280;10233;50.814;6.590;2023-02-26T06:15:33;100598.41;;;-0.71;100.00
20145;BME280;10233;50.814;6.590;2023-02-26T06:16:33;100604.31;;;-0.69;100.00
20145;BME280;10233;50.814;6.590;2023-02-26T06:17:35;100610.63;;;-0.72;100.00